Time;durP1;ratioP1;P1;durP2;ratioP2;P2;SDS_P1;SDS_P2;PMS_P1;PMS_P2;Temp;Humidity;BMP_temperature;BMP_pressure;BME280_temperature;BME280_humidity;BME280_pressure;Samples;Min_cycle;Max_cycle;Signal;HPM_P1;HPM_P2
2022/03/27 00:00:00;;;;;;;9.10;6.40;;;10.90;1.00;;;;;;4964425;28;20643;-64
2022/03/27 00:02:29;;;;;;;14.90;7.93;;;10.90;1.00;;;;;;4961016;28;20206;-65
2022/03/27 00:05:03;;;;;;;13.70;8.27;;;11.00;99.90;;;;;;4961378;28;20577;-64
2022/03/27 00:07:30;;;;;;;15.10;8.90;;;11.20;99.90;;;;;;4959141;28;20190;-65
2022/03/27 00:09:57;;;;;;;13.60;7.53;;;11.30;99.90;;;;;;4963550;28;20282;-65
2022/03/27 00:12:24;;;;;;;12.40;7.17;;;11.40;99.90;;;;;;4962073;28;20221;-64
2022/03/27 00:14:51;;;;;;;11.37;6.73;;;11.60;15.70;;;;;;4960502;28;20202;-64
2022/03/27 00:17:18;;;;;;;10.60;7.47;;;11.60;1.00;;;;;;4958768;28;20553;-65
2022/03/27 00:19:48;;;;;;;21.80;12.57;;;11.60;1.00;;;;;;4972331;28;20225;-66
2022/03/27 00:22:16;;;;;;;23.03;14.07;;;11.70;1.00;;;;;;4974594;28;20586;-64
2022/03/27 00:24:43;;;;;;;16.50;11.67;;;11.70;1.00;;;;;;4954684;28;20704;-64
2022/03/27 00:27:11;;;;;;;20.77;13.10;;;11.70;1.00;;;;;;4947272;28;20208;-64
2022/03/27 00:29:37;;;;;;;18.63;12.37;;;11.70;1.00;;;;;;4960728;28;20194;-64
2022/03/27 00:32:05;;;;;;;16.40;10.47;;;11.80;1.00;;;;;;4921128;28;20297;-64
2022/03/27 00:34:34;;;;;;;16.07;10.57;;;11.90;1.00;;;;;;4968301;28;20878;-65
2022/03/27 00:37:02;;;;;;;14.60;9.63;;;11.90;1.00;;;;;;4962191;28;20217;-65
2022/03/27 00:39:29;;;;;;;14.53;9.73;;;11.90;1.00;;;;;;4972429;28;20622;-65
2022/03/27 00:41:55;;;;;;;15.80;10.30;;;11.90;1.00;;;;;;4961331;28;20206;-66
2022/03/27 00:44:23;;;;;;;10.10;8.13;;;11.90;1.00;;;;;;4959640;28;20743;-65
2022/03/27 00:46:53;;;;;;;11.60;7.97;;;12.00;1.00;;;;;;4969534;28;20289;-66
2022/03/27 00:49:20;;;;;;;14.63;7.30;;;12.00;1.00;;;;;;4959985;28;20245;-64
2022/03/27 00:51:47;;;;;;;10.37;8.60;;;12.00;1.00;;;;;;4971309;28;20218;-64
2022/03/27 00:54:16;;;;;;;11.60;8.93;;;11.80;4.40;;;;;;4956307;28;20277;-64
2022/03/27 00:56:45;;;;;;;10.83;9.03;;;11.50;99.90;;;;;;4961396;28;20261;-64
2022/03/27 00:59:14;;;;;;;10.93;8.67;;;11.40;99.90;;;;;;4960214;28;20201;-65
2022/03/27 01:01:44;;;;;;;10.10;8.50;;;11.30;1.00;;;;;;4970708;28;20371;-64
2022/03/27 01:04:11;;;;;;;10.60;8.77;;;11.30;1.00;;;;;;4959269;28;20218;-64
2022/03/27 01:06:47;;;;;;;11.97;9.07;;;11.20;1.00;;;;;;4949919;28;20733;-64
2022/03/27 01:09:37;;;;;;;12.47;9.00;;;11.30;1.00;;;;;;4963772;28;20226;-65
2022/03/27 01:12:22;;;;;;;9.90;8.57;;;11.30;99.90;;;;;;4958325;28;20666;-64
2022/03/27 01:14:56;;;;;;;11.40;9.43;;;11.20;1.00;;;;;;4957820;28;20252;-64
2022/03/27 01:17:25;;;;;;;11.57;10.30;;;11.20;1.00;;;;;;4941835;28;20233;-65
2022/03/27 01:19:56;;;;;;;13.63;10.80;;;11.10;1.00;;;;;;4975493;28;20229;-64
2022/03/27 01:22:26;;;;;;;11.47;9.63;;;11.20;1.00;;;;;;4956566;28;20305;-63
2022/03/27 01:24:55;;;;;;;14.37;10.50;;;11.20;1.00;;;;;;4957003;28;20186;-62
2022/03/27 01:27:24;;;;;;;12.60;10.57;;;11.00;1.00;;;;;;4944918;28;20198;-62
2022/03/27 01:29:53;;;;;;;12.57;10.40;;;10.90;1.00;;;;;;4961211;28;21202;-63
2022/03/27 01:32:20;;;;;;;18.70;11.77;;;11.00;1.00;;;;;;4960816;28;20633;-62
2022/03/27 01:34:49;;;;;;;15.37;11.30;;;10.80;1.00;;;;;;4954001;28;20202;-62
2022/03/27 01:37:16;;;;;;;12.00;10.57;;;10.90;1.00;;;;;;4989362;28;20560;-62
2022/03/27 01:39:44;;;;;;;12.50;11.03;;;10.90;1.00;;;;;;4963003;28;20227;-62
2022/03/27 01:42:15;;;;;;;12.30;10.97;;;10.70;1.00;;;;;;4962832;28;20199;-62
2022/03/27 01:44:43;;;;;;;16.07;12.70;;;10.60;1.00;;;;;;4962344;28;20195;-62
2022/03/27 01:47:10;;;;;;;15.53;12.27;;;10.50;1.00;;;;;;4979850;28;20202;-62
2022/03/27 01:49:40;;;;;;;17.63;13.30;;;10.50;1.00;;;;;;4964889;28;20195;-62
2022/03/27 01:52:07;;;;;;;19.27;13.77;;;10.50;1.00;;;;;;4945039;28;20647;-62
2022/03/27 01:54:34;;;;;;;15.77;12.50;;;10.50;1.00;;;;;;4979954;28;20301;-62
2022/03/27 01:57:01;;;;;;;20.13;14.13;;;10.50;1.00;;;;;;4964238;28;20257;-62
2022/03/27 01:59:28;;;;;;;17.43;13.30;;;10.50;1.00;;;;;;4961920;28;20202;-62
2022/03/27 02:01:58;;;;;;;15.37;13.03;;;10.50;1.00;;;;;;4951406;28;20210;-62
2022/03/27 02:04:26;;;;;;;18.07;14.97;;;10.40;1.00;;;;;;4943335;28;20228;-62
2022/03/27 02:06:55;;;;;;;15.80;14.10;;;10.40;1.00;;;;;;4974159;28;20206;-62
2022/03/27 02:09:22;;;;;;;21.10;14.00;;;10.40;1.00;;;;;;4974176;28;20219;-62
2022/03/27 02:11:51;;;;;;;16.70;13.37;;;10.60;1.00;;;;;;4960821;28;20198;-62
2022/03/27 02:14:21;;;;;;;19.23;13.87;;;10.70;1.00;;;;;;4962025;28;20206;-63
2022/03/27 02:16:48;;;;;;;15.60;13.50;;;10.70;1.00;;;;;;4959789;28;20664;-62
2022/03/27 02:19:15;;;;;;;15.60;14.00;;;10.50;1.00;;;;;;4963171;28;20952;-62
2022/03/27 02:21:42;;;;;;;16.20;14.50;;;10.40;1.00;;;;;;4960496;28;20222;-62
2022/03/27 02:24:10;;;;;;;17.50;15.70;;;10.40;1.00;;;;;;4961005;28;20215;-63
2022/03/27 02:26:46;;;;;;;17.40;15.43;;;10.40;1.00;;;;;;4959970;28;20203;-63
2022/03/27 02:29:17;;;;;;;17.97;15.90;;;10.40;1.00;;;;;;4944772;28;20210;-62
2022/03/27 02:31:47;;;;;;;18.50;16.60;;;10.30;1.00;;;;;;4975259;28;20194;-62
2022/03/27 02:34:20;;;;;;;19.50;16.80;;;10.30;1.00;;;;;;4961798;28;20222;-62
2022/03/27 02:36:47;;;;;;;19.03;16.57;;;10.20;99.90;;;;;;4955143;28;20206;-63
2022/03/27 02:39:14;;;;;;;24.90;16.73;;;10.30;31.00;;;;;;4961674;28;20245;-64
2022/03/27 02:41:45;;;;;;;20.73;18.07;;;10.20;97.40;;;;;;4973476;28;20203;-63
2022/03/27 02:44:12;;;;;;;21.40;18.70;;;10.10;99.90;;;;;;4948373;28;20218;-63
2022/03/27 02:46:40;;;;;;;21.57;18.00;;;10.10;99.90;;;;;;4965044;28;20733;-63
2022/03/27 02:49:09;;;;;;;20.43;17.77;;;10.10;99.90;;;;;;4975115;28;20642;-63
2022/03/27 02:51:39;;;;;;;21.70;18.27;;;10.10;61.70;;;;;;4958138;28;20212;-63
2022/03/27 02:54:07;;;;;;;21.83;18.23;;;10.20;23.00;;;;;;4959729;28;20205;-62
2022/03/27 02:56:34;;;;;;;21.20;18.27;;;10.20;1.00;;;;;;4973493;28;20298;-62
2022/03/27 02:59:01;;;;;;;23.07;19.03;;;10.30;1.00;;;;;;4975244;28;20222;-62
2022/03/27 03:01:32;;;;;;;21.53;19.13;;;10.30;1.00;;;;;;4962080;28;20256;-62
2022/03/27 03:03:59;;;;;;;21.23;18.00;;;10.30;1.00;;;;;;4961468;28;20214;-63
2022/03/27 03:06:28;;;;;;;19.30;17.37;;;10.30;1.00;;;;;;4957714;28;20238;-63
2022/03/27 03:08:58;;;;;;;20.43;18.27;;;10.20;1.00;;;;;;4957908;28;20203;-64
2022/03/27 03:11:25;;;;;;;19.57;17.53;;;10.20;1.00;;;;;;4963709;28;20191;-63
2022/03/27 03:13:52;;;;;;;24.57;18.13;;;10.20;1.00;;;;;;4959083;28;20528;-62
2022/03/27 03:16:40;;;;;;;20.00;17.63;;;10.20;1.00;;;;;;4956870;28;20633;-63
2022/03/27 03:19:07;;;;;;;20.77;18.47;;;10.10;1.00;;;;;;4965706;28;20204;-63
2022/03/27 03:21:38;;;;;;;23.00;17.67;;;10.00;1.00;;;;;;4957864;28;21166;-63
2022/03/27 03:24:09;;;;;;;20.67;17.73;;;9.90;28.20;;;;;;4956632;28;20314;-63
2022/03/27 03:26:36;;;;;;;19.87;17.37;;;9.80;36.20;;;;;;4956400;28;20294;-63
2022/03/27 03:29:02;;;;;;;21.03;18.13;;;9.70;10.40;;;;;;4955365;28;20256;-63
2022/03/27 03:31:30;;;;;;;21.37;17.37;;;9.70;45.00;;;;;;4961891;28;20637;-63
2022/03/27 03:33:57;;;;;;;24.37;17.87;;;9.60;53.90;;;;;;4962784;28;20289;-63
2022/03/27 03:36:24;;;;;;;21.33;17.13;;;9.50;99.90;;;;;;4959019;28;20285;-63
2022/03/27 03:38:51;;;;;;;22.67;17.73;;;9.50;99.90;;;;;;4973616;28;20247;-63
2022/03/27 03:41:18;;;;;;;21.20;16.43;;;9.50;95.10;;;;;;4963609;28;20214;-63
2022/03/27 03:43:47;;;;;;;20.70;16.47;;;9.50;9.90;;;;;;4961282;28;20226;-62
2022/03/27 03:46:14;;;;;;;18.00;15.80;;;9.40;1.00;;;;;;4974563;28;20198;-62
2022/03/27 03:48:41;;;;;;;19.70;15.37;;;9.40;1.00;;;;;;4962893;28;20201;-63
2022/03/27 03:51:10;;;;;;;16.90;15.03;;;9.40;1.00;;;;;;4961451;28;20265;-63
2022/03/27 03:53:39;;;;;;;17.67;15.33;;;9.40;1.00;;;;;;4956054;28;20208;-63
2022/03/27 03:56:06;;;;;;;21.60;15.53;;;9.40;1.00;;;;;;4962455;28;20308;-62
2022/03/27 03:58:33;;;;;;;20.27;16.33;;;9.40;1.00;;;;;;4959261;28;20741;-63
2022/03/27 04:01:03;;;;;;;17.30;15.50;;;9.30;1.00;;;;;;4973540;28;20206;-63
2022/03/27 04:03:31;;;;;;;21.70;16.03;;;9.30;1.00;;;;;;4955762;28;20206;-63
2022/03/27 04:06:02;;;;;;;20.77;16.93;;;9.30;1.00;;;;;;4946703;28;20353;-63
2022/03/27 04:08:28;;;;;;;22.93;17.17;;;9.30;1.00;;;;;;4975174;28;20202;-63
2022/03/27 04:10:55;;;;;;;23.80;17.27;;;9.30;1.00;;;;;;4961289;28;20209;-63
2022/03/27 04:13:24;;;;;;;23.40;17.37;;;9.40;1.00;;;;;;4972129;28;20281;-63
2022/03/27 04:15:53;;;;;;;22.83;18.23;;;9.40;1.00;;;;;;4958222;28;20826;-63
2022/03/27 04:18:22;;;;;;;17.77;15.20;;;9.50;1.00;;;;;;4957462;28;20571;-63
2022/03/27 04:20:49;;;;;;;19.60;15.57;;;9.50;99.90;;;;;;4956060;28;20310;-64
2022/03/27 04:23:16;;;;;;;18.03;15.73;;;9.50;99.90;;;;;;4956506;28;20206;-63
2022/03/27 04:25:45;;;;;;;19.20;15.50;;;9.50;99.90;;;;;;4958034;28;20201;-63
2022/03/27 04:28:12;;;;;;;20.47;16.80;;;9.60;99.90;;;;;;4971648;28;20238;-62
2022/03/27 04:30:41;;;;;;;19.13;15.17;;;9.50;99.90;;;;;;4971897;28;20281;-63
2022/03/27 04:33:08;;;;;;;18.83;16.33;;;9.40;99.90;;;;;;4957778;28;20285;-63
2022/03/27 04:35:38;;;;;;;17.20;15.23;;;9.30;99.90;;;;;;4971312;28;20218;-63
2022/03/27 04:38:05;;;;;;;19.57;15.37;;;9.30;99.90;;;;;;4959519;28;20257;-64
2022/03/27 04:40:32;;;;;;;18.70;15.37;;;9.20;99.90;;;;;;4957784;28;20796;-64
2022/03/27 04:43:01;;;;;;;18.60;14.57;;;9.30;99.90;;;;;;4958105;28;20198;-64
2022/03/27 04:45:28;;;;;;;17.37;15.50;;;9.20;99.90;;;;;;4959779;28;20211;-64
2022/03/27 04:47:58;;;;;;;19.50;16.17;;;9.20;99.90;;;;;;4956867;28;20191;-64
2022/03/27 04:50:27;;;;;;;20.23;17.00;;;9.10;99.90;;;;;;4958569;28;20225;-64
2022/03/27 04:52:54;;;;;;;20.17;16.43;;;9.10;99.90;;;;;;4932750;28;20757;-64
2022/03/27 04:55:21;;;;;;;19.47;15.53;;;9.10;99.90;;;;;;4946156;28;20888;-64
2022/03/27 04:57:48;;;;;;;19.27;15.80;;;9.10;99.90;;;;;;4951091;28;20264;-64
2022/03/27 05:00:15;;;;;;;22.20;16.87;;;9.10;99.90;;;;;;4943505;28;20213;-64
2022/03/27 05:02:43;;;;;;;20.20;17.43;;;9.10;99.90;;;;;;4972316;28;20611;-63
2022/03/27 05:05:11;;;;;;;20.37;16.43;;;8.90;99.90;;;;;;4960086;28;22345;-63
2022/03/27 05:07:40;;;;;;;21.83;16.57;;;8.90;99.90;;;;;;4957236;28;20758;-63
2022/03/27 05:10:08;;;;;;;21.47;16.73;;;8.90;99.90;;;;;;4973244;28;20730;-64
2022/03/27 05:12:36;;;;;;;21.63;17.23;;;8.90;99.90;;;;;;4974240;28;20206;-64
2022/03/27 05:15:03;;;;;;;21.90;17.80;;;9.00;99.90;;;;;;4957625;28;20533;-64
2022/03/27 05:17:30;;;;;;;23.27;18.20;;;8.90;99.90;;;;;;4978631;28;20203;-64
2022/03/27 05:19:58;;;;;;;20.20;17.17;;;8.80;99.90;;;;;;4968784;28;20305;-63
2022/03/27 05:22:25;;;;;;;26.20;18.27;;;8.70;99.90;;;;;;4959563;28;20245;-64
2022/03/27 05:24:53;;;;;;;25.10;17.80;;;8.70;99.90;;;;;;4960901;28;20222;-63
2022/03/27 05:27:20;;;;;;;22.73;17.73;;;8.80;99.90;;;;;;4961053;28;20207;-64
2022/03/27 05:29:52;;;;;;;24.33;18.53;;;8.70;99.90;;;;;;4961980;28;20206;-64
2022/03/27 05:32:19;;;;;;;24.00;18.87;;;8.60;99.90;;;;;;4976133;28;20206;-63
2022/03/27 05:34:46;;;;;;;25.13;19.00;;;8.40;99.90;;;;;;4975772;28;20206;-63
2022/03/27 05:37:13;;;;;;;24.07;19.43;;;8.40;99.90;;;;;;4975266;28;20334;-63
2022/03/27 05:39:40;;;;;;;23.53;19.03;;;8.50;99.90;;;;;;4961352;28;20234;-63
2022/03/27 05:42:08;;;;;;;25.50;18.90;;;8.40;99.90;;;;;;4974420;28;20221;-64
2022/03/27 05:44:34;;;;;;;24.83;19.17;;;8.40;99.90;;;;;;4960290;28;20245;-63
2022/03/27 05:47:01;;;;;;;23.37;18.13;;;8.30;99.90;;;;;;4964937;28;20209;-63
2022/03/27 05:49:28;;;;;;;22.13;18.50;;;8.30;99.90;;;;;;4945319;28;20210;-63
2022/03/27 05:51:55;;;;;;;28.80;20.73;;;8.50;99.90;;;;;;4974264;28;20289;-64
2022/03/27 05:54:24;;;;;;;23.40;18.60;;;8.50;68.00;;;;;;4945141;28;20217;-64
2022/03/27 05:56:56;;;;;;;27.87;20.43;;;8.50;21.50;;;;;;4956964;28;20248;-64
2022/03/27 05:59:23;;;;;;;24.07;18.77;;;8.50;13.60;;;;;;4965547;28;20902;-64
2022/03/27 06:01:50;;;;;;;23.30;18.53;;;8.50;24.90;;;;;;4974558;28;21150;-64
2022/03/27 06:04:17;;;;;;;25.67;19.67;;;8.40;4.90;;;;;;4959666;28;20218;-63
2022/03/27 06:06:44;;;;;;;24.83;19.17;;;8.30;35.60;;;;;;4960856;28;20222;-64
2022/03/27 06:09:11;;;;;;;28.57;19.67;;;8.20;89.80;;;;;;4990368;28;20199;-64
2022/03/27 06:11:38;;;;;;;30.93;21.47;;;8.00;99.90;;;;;;4961399;28;20245;-63
2022/03/27 06:14:05;;;;;;;26.77;19.90;;;8.00;99.90;;;;;;4960805;28;20309;-63
2022/03/27 06:16:32;;;;;;;25.73;20.07;;;8.00;99.90;;;;;;4962858;28;20222;-63
2022/03/27 06:19:02;;;;;;;27.87;21.00;;;8.10;99.90;;;;;;4963876;28;20297;-64
2022/03/27 06:21:29;;;;;;;23.90;19.53;;;8.20;99.90;;;;;;4960342;28;20292;-64
2022/03/27 06:23:58;;;;;;;28.10;21.27;;;8.30;98.60;;;;;;4959383;28;20215;-64
2022/03/27 06:26:27;;;;;;;23.50;18.20;;;8.40;96.00;;;;;;4957071;28;20840;-63
2022/03/27 06:28:57;;;;;;;24.63;18.73;;;8.60;1.00;;;;;;4959919;28;20258;-63
2022/03/27 06:31:26;;;;;;;23.70;18.57;;;8.80;1.00;;;;;;4962552;28;20230;-65
2022/03/27 06:33:53;;;;;;;24.87;17.40;;;8.80;1.00;;;;;;4944384;28;20218;-64
2022/03/27 06:36:20;;;;;;;24.37;18.30;;;8.80;1.00;;;;;;4959261;28;20290;-63
2022/03/27 06:38:47;;;;;;;26.07;19.10;;;9.00;1.00;;;;;;4965836;28;20260;-63
2022/03/27 06:41:16;;;;;;;26.07;19.03;;;9.10;1.00;;;;;;4973044;28;20230;-63
2022/03/27 06:43:44;;;;;;;24.63;19.07;;;9.10;1.00;;;;;;4953511;28;20210;-63
2022/03/27 06:46:16;;;;;;;22.27;18.20;;;9.00;1.00;;;;;;4975113;28;20237;-63
2022/03/27 06:48:44;;;;;;;25.60;19.23;;;8.90;1.00;;;;;;4958920;28;20195;-64
2022/03/27 06:51:13;;;;;;;22.70;18.10;;;8.70;1.00;;;;;;4958721;28;20226;-64
2022/03/27 06:53:43;;;;;;;25.80;19.20;;;8.90;1.00;;;;;;4958499;28;20285;-64
2022/03/27 06:56:10;;;;;;;26.20;18.53;;;9.10;1.00;;;;;;4958710;28;20226;-63
2022/03/27 06:58:37;;;;;;;21.60;18.40;;;9.20;1.00;;;;;;4958158;28;20230;-63
2022/03/27 07:03:54;;;;;;;23.63;17.57;;;9.50;1.00;;;;;;4973774;28;20226;-63
2022/03/27 07:06:21;;;;;;;21.73;16.57;;;9.50;99.90;;;;;;4947842;28;20945;-65
2022/03/27 07:08:48;;;;;;;22.23;17.57;;;9.60;99.90;;;;;;4973974;28;20199;-63
2022/03/27 07:11:18;;;;;;;22.47;17.50;;;9.40;99.90;;;;;;4990296;28;20229;-63
2022/03/27 07:13:45;;;;;;;24.27;18.50;;;9.30;1.00;;;;;;4973757;28;20290;-63
2022/03/27 07:16:14;;;;;;;26.13;19.43;;;9.20;1.00;;;;;;4943307;28;20258;-64
2022/03/27 07:18:49;;;;;;;25.60;18.83;;;9.40;99.90;;;;;;4963068;28;20226;-64
2022/03/27 07:21:18;;;;;;;23.33;17.40;;;9.70;99.90;;;;;;4961822;28;20280;-64
2022/03/27 07:23:45;;;;;;;23.57;18.77;;;10.00;99.90;;;;;;4956219;28;20629;-63
2022/03/27 07:26:17;;;;;;;23.77;17.47;;;10.00;99.90;;;;;;4971346;28;20217;-63
2022/03/27 07:28:44;;;;;;;24.90;17.33;;;10.40;99.90;;;;;;4957048;28;20205;-64
2022/03/27 07:31:13;;;;;;;20.30;16.83;;;10.70;48.10;;;;;;4987787;28;20206;-65
2022/03/27 07:33:40;;;;;;;22.17;16.77;;;10.70;20.00;;;;;;4973113;28;20693;-65
2022/03/27 07:36:07;;;;;;;21.17;17.20;;;10.90;1.00;;;;;;4954875;28;20198;-65
2022/03/27 07:38:34;;;;;;;19.17;17.03;;;10.80;1.00;;;;;;4971031;28;20273;-62
2022/03/27 07:41:02;;;;;;;20.77;17.20;;;11.20;1.00;;;;;;4969044;28;20260;-63
2022/03/27 07:43:32;;;;;;;19.90;16.97;;;11.50;1.00;;;;;;4947010;28;20256;-63
2022/03/27 07:45:59;;;;;;;19.77;16.70;;;11.20;1.00;;;;;;4963540;28;20229;-64
2022/03/27 07:48:27;;;;;;;20.77;17.07;;;11.30;1.00;;;;;;4962588;28;20194;-65
2022/03/27 07:50:56;;;;;;;20.03;16.33;;;11.90;1.00;;;;;;4962587;28;20225;-64
2022/03/27 07:53:23;;;;;;;19.50;16.37;;;12.10;1.00;;;;;;4963916;28;20684;-64
2022/03/27 07:55:52;;;;;;;20.23;16.57;;;12.70;1.00;;;;;;4979907;28;20216;-64
2022/03/27 07:58:21;;;;;;;20.53;16.67;;;13.50;99.90;;;;;;4962855;28;20197;-63
2022/03/27 08:00:48;;;;;;;19.97;17.40;;;13.80;99.90;;;;;;4958189;28;20262;-64
2022/03/27 08:03:17;;;;;;;22.27;17.20;;;13.50;99.90;;;;;;4965066;28;20543;-64
2022/03/27 08:05:44;;;;;;;19.27;16.57;;;13.20;99.90;;;;;;4946120;28;20224;-63
2022/03/27 08:08:11;;;;;;;18.60;16.60;;;13.80;99.90;;;;;;4978030;28;20197;-64
2022/03/27 08:10:38;;;;;;;21.40;16.17;;;14.20;39.50;;;;;;4962305;28;20202;-63
2022/03/27 08:13:05;;;;;;;19.50;16.83;;;14.90;1.00;;;;;;4976691;28;20217;-63
2022/03/27 08:15:35;;;;;;;18.70;16.00;;;14.60;1.00;;;;;;4968239;28;20205;-63
2022/03/27 08:18:03;;;;;;;18.67;16.30;;;14.70;1.00;;;;;;4980710;28;20284;-64
2022/03/27 08:20:30;;;;;;;19.63;16.87;;;14.80;1.00;;;;;;4971866;28;20202;-63
2022/03/27 08:22:58;;;;;;;18.30;16.30;;;14.80;1.00;;;;;;4981633;28;20625;-64
2022/03/27 08:28:14;;;;;;;18.03;15.87;;;13.90;1.00;;;;;;4980283;28;20204;-63
2022/03/27 08:30:43;;;;;;;18.67;15.57;;;14.40;1.00;;;;;;4979858;28;20244;-63
2022/03/27 08:33:14;;;;;;;19.43;17.07;;;14.90;1.00;;;;;;4977318;28;20613;-63
2022/03/27 08:35:42;;;;;;;20.23;15.50;;;15.70;1.00;;;;;;4975677;28;20258;-64
2022/03/27 08:38:17;;;;;;;21.80;16.10;;;16.30;1.00;;;;;;4965023;28;20198;-63
2022/03/27 08:40:55;;;;;;;17.02;14.88;;;15.90;1.00;;;;;;4979923;28;20189;-63
2022/03/27 08:43:22;;;;;;;18.50;15.27;;;16.40;1.00;;;;;;4963737;28;20198;-64
2022/03/27 08:45:51;;;;;;;18.45;16.45;;;16.90;1.00;;;;;;4964351;28;20252;-63
2022/03/27 08:48:20;;;;;;;18.35;15.38;;;16.70;1.00;;;;;;4969914;28;20190;-63
2022/03/27 08:51:05;;;;;;;19.42;15.90;;;16.60;1.00;;;;;;4979344;28;20229;-63
2022/03/27 08:53:55;;;;;;;19.85;16.55;;;15.80;1.00;;;;;;4978117;28;20209;-63
2022/03/27 08:56:24;;;;;;;17.55;15.55;;;16.10;1.00;;;;;;4975999;28;20226;-63
2022/03/27 08:58:55;;;;;;;19.13;16.00;;;16.30;1.00;;;;;;4961096;28;20577;-63
2022/03/27 09:01:22;;;;;;;17.42;15.55;;;17.20;1.00;;;;;;4954318;28;20285;-63
2022/03/27 09:03:52;;;;;;;16.92;15.10;;;17.40;1.00;;;;;;4960100;28;20269;-63
2022/03/27 09:06:21;;;;;;;18.17;14.15;;;18.00;1.00;;;;;;4973290;28;20711;-63
2022/03/27 09:08:54;;;;;;;17.45;15.63;;;17.60;1.00;;;;;;4959567;28;20187;-63
2022/03/27 09:11:23;;;;;;;17.77;15.80;;;16.90;1.00;;;;;;4959039;28;20252;-63
2022/03/27 09:13:56;;;;;;;16.55;14.85;;;16.40;1.00;;;;;;4977687;28;20668;-63
2022/03/27 09:16:23;;;;;;;19.80;15.82;;;16.30;1.00;;;;;;4980064;28;20257;-63
2022/03/27 09:18:55;;;;;;;18.08;16.15;;;16.30;1.00;;;;;;4962106;28;20202;-63
2022/03/27 09:21:24;;;;;;;16.00;14.25;;;16.10;1.00;;;;;;4979176;28;20295;-64
2022/03/27 09:23:55;;;;;;;18.98;16.17;;;16.60;1.00;;;;;;4979086;28;20194;-63
2022/03/27 09:26:22;;;;;;;17.27;14.70;;;16.60;1.00;;;;;;4977840;28;20233;-63
2022/03/27 09:28:56;;;;;;;19.70;16.15;;;16.70;1.00;;;;;;4961813;28;20305;-63
2022/03/27 09:31:30;;;;;;;17.63;14.82;;;16.90;1.00;;;;;;4963303;28;20232;-63
2022/03/27 09:34:01;;;;;;;17.40;15.27;;;17.40;1.00;;;;;;4979568;28;20565;-63
2022/03/27 09:36:33;;;;;;;17.42;15.05;;;16.90;1.00;;;;;;4977425;28;20233;-63
2022/03/27 09:39:16;;;;;;;16.92;15.13;;;17.20;1.00;;;;;;4960223;28;20261;-63
2022/03/27 09:41:45;;;;;;;17.25;15.40;;;17.30;1.00;;;;;;4962405;28;20633;-63
2022/03/27 09:44:18;;;;;;;17.00;14.60;;;18.00;1.00;;;;;;4961190;28;20215;-63
2022/03/27 09:47:11;;;;;;;17.08;15.27;;;18.20;1.00;;;;;;4951892;28;20301;-63
2022/03/27 09:49:41;;;;;;;17.67;14.60;;;18.60;99.90;;;;;;4948515;28;20603;-63
2022/03/27 09:52:19;;;;;;;17.23;15.43;;;18.90;99.90;;;;;;4962468;28;20313;-62
2022/03/27 09:55:12;;;;;;;18.95;14.10;;;19.00;99.90;;;;;;4962945;28;20201;-64
2022/03/27 09:57:41;;;;;;;16.90;15.13;;;18.80;99.90;;;;;;4962137;28;20198;-63
2022/03/27 10:00:15;;;;;;;16.05;14.32;;;17.80;99.90;;;;;;4966438;28;20700;-63
2022/03/27 10:02:51;;;;;;;15.90;14.30;;;18.60;99.90;;;;;;4961745;28;20283;-63
2022/03/27 10:05:20;;;;;;;16.15;14.35;;;20.10;99.90;;;;;;4978714;28;20209;-63
2022/03/27 10:07:51;;;;;;;29.40;24.25;;;20.20;99.90;;;;;;4966191;28;20200;-64
2022/03/27 10:10:20;;;;;;;24.10;20.52;;;20.40;99.90;;;;;;4969196;28;20808;-64
2022/03/27 10:12:49;;;;;;;16.02;14.10;;;20.80;99.90;;;;;;4986422;28;20590;-63
2022/03/27 10:15:22;;;;;;;69.35;43.80;;;20.90;99.90;;;;;;4986553;28;20260;-64
2022/03/27 10:17:56;;;;;;;14.45;13.05;;;21.60;99.90;;;;;;4983002;28;20210;-63
2022/03/27 10:20:32;;;;;;;14.88;12.80;;;22.80;99.90;;;;;;4982396;28;20190;-64
2022/03/27 10:23:07;;;;;;;14.02;12.63;;;21.80;99.90;;;;;;4957319;28;20265;-64
2022/03/27 10:25:42;;;;;;;14.05;12.65;;;21.50;99.90;;;;;;4965253;28;20293;-63
2022/03/27 10:28:09;;;;;;;12.98;11.63;;;22.30;99.90;;;;;;4965480;28;20660;-63
2022/03/27 10:30:38;;;;;;;12.13;10.23;;;23.10;99.90;;;;;;4964481;28;20212;-63
2022/03/27 10:33:08;;;;;;;11.20;10.10;;;27.10;99.90;;;;;;4973242;28;20202;-64
2022/03/27 10:36:08;;;;;;;10.30;9.30;;;26.80;99.90;;;;;;4964493;28;20209;-65
2022/03/27 10:38:54;;;;;;;14.05;9.10;;;26.80;99.90;;;;;;4983013;28;20206;-64
2022/03/27 10:41:45;;;;;;;10.05;9.05;;;27.10;99.90;;;;;;4971225;28;20787;-64
2022/03/27 10:44:33;;;;;;;9.20;8.30;;;28.10;99.90;;;;;;4972017;28;20209;-64
2022/03/27 10:47:12;;;;;;;7.85;7.05;;;28.40;99.90;;;;;;4979771;28;20661;-63
2022/03/27 10:49:41;;;;;;;5.80;5.22;;;29.90;99.90;;;;;;4978171;28;20194;-64
2022/03/27 10:52:09;;;;;;;12.68;6.28;;;28.50;99.90;;;;;;4979118;28;20776;-64
2022/03/27 10:55:06;;;;;;;8.70;7.90;;;28.50;99.90;;;;;;4956312;28;20218;-64
2022/03/27 10:57:34;;;;;;;8.55;7.75;;;25.50;99.90;;;;;;4968528;28;20676;-66
2022/03/27 11:00:06;;;;;;;9.40;8.52;;;26.80;99.90;;;;;;4965273;28;20252;-64
2022/03/27 11:02:51;;;;;;;7.95;7.25;;;27.80;99.90;;;;;;4965655;28;20228;-64
2022/03/27 11:05:36;;;;;;;7.72;6.95;;;28.90;99.90;;;;;;4963465;28;20213;-63
2022/03/27 11:08:18;;;;;;;6.80;6.20;;;29.30;99.90;;;;;;4981206;28;20185;-63
2022/03/27 11:10:55;;;;;;;6.50;5.90;;;29.90;99.90;;;;;;4982328;28;21024;-64
2022/03/27 11:13:25;;;;;;;6.60;6.10;;;28.80;99.90;;;;;;4982347;28;20204;-63
2022/03/27 11:16:09;;;;;;;6.43;5.88;;;26.80;99.90;;;;;;4965154;28;20657;-63
2022/03/27 11:18:37;;;;;;;6.43;5.88;;;26.40;99.90;;;;;;4980601;28;20202;-63
2022/03/27 11:21:04;;;;;;;7.05;6.35;;;26.40;99.90;;;;;;4962459;28;20281;-63
2022/03/27 11:23:37;;;;;;;7.38;5.85;;;25.60;99.90;;;;;;4964310;28;20608;-64
2022/03/27 11:26:28;;;;;;;7.05;6.45;;;27.20;99.90;;;;;;4960946;28;20265;-63
2022/03/27 11:29:22;;;;;;;6.47;5.82;;;27.30;99.90;;;;;;4976252;28;20224;-63
2022/03/27 11:32:07;;;;;;;8.00;5.82;;;28.20;99.90;;;;;;4952696;28;20240;-63
2022/03/27 11:34:37;;;;;;;6.88;6.28;;;28.00;99.90;;;;;;4960596;28;20194;-64
2022/03/27 11:37:27;;;;;;;7.60;6.78;;;28.10;99.90;;;;;;4951968;28;20399;-63
2022/03/27 11:39:55;;;;;;;7.65;6.95;;;25.60;99.90;;;;;;4978812;28;20234;-63
2022/03/27 11:42:35;;;;;;;7.95;7.20;;;25.20;99.90;;;;;;4977976;28;20232;-63
2022/03/27 11:45:09;;;;;;;11.93;6.97;;;25.30;99.90;;;;;;4964442;28;20913;-63
2022/03/27 11:47:42;;;;;;;7.88;7.07;;;25.70;99.90;;;;;;4951087;28;20775;-64
2022/03/27 11:50:21;;;;;;;10.07;9.18;;;25.60;99.90;;;;;;4968216;28;20257;-63
2022/03/27 11:52:48;;;;;;;8.02;7.32;;;24.90;99.90;;;;;;4976052;28;20583;-63
2022/03/27 11:55:16;;;;;;;9.55;8.65;;;26.20;99.90;;;;;;4971865;28;20742;-63
2022/03/27 11:57:56;;;;;;;8.60;7.88;;;26.50;99.90;;;;;;4948817;28;21206;-63
2022/03/27 12:00:35;;;;;;;9.45;8.55;;;26.30;99.90;;;;;;4959468;28;20690;-63
2022/03/27 12:03:04;;;;;;;9.23;8.15;;;24.90;99.90;;;;;;4976681;28;20189;-63
2022/03/27 12:05:41;;;;;;;9.82;8.93;;;24.60;99.90;;;;;;4942069;28;21237;-63
2022/03/27 12:08:09;;;;;;;10.23;9.23;;;23.60;99.90;;;;;;4964269;28;20253;-63
2022/03/27 12:11:08;;;;;;;10.65;9.60;;;21.50;99.90;;;;;;4962451;28;20194;-63
2022/03/27 12:13:40;;;;;;;10.07;9.02;;;22.60;99.90;;;;;;4981038;28;20660;-63
2022/03/27 12:16:20;;;;;;;9.60;8.70;;;21.80;99.90;;;;;;4963988;28;20211;-62
2022/03/27 12:18:53;;;;;;;8.95;8.15;;;22.90;99.90;;;;;;4961409;28;20256;-63
2022/03/27 12:21:24;;;;;;;9.65;8.73;;;23.30;99.90;;;;;;4965379;28;20225;-64
2022/03/27 12:23:55;;;;;;;10.13;9.13;;;22.50;99.90;;;;;;4964002;28;20685;-62
2022/03/27 12:32:08;;;;;;;12.07;10.88;;;20.30;99.90;;;;;;4974306;28;20218;-63
2022/03/27 12:34:41;;;;;;;13.52;12.05;;;21.00;99.90;;;;;;4945033;28;20276;-62
2022/03/27 12:37:14;;;;;;;13.40;12.00;;;20.20;99.90;;;;;;4959992;28;20213;-62
2022/03/27 12:40:03;;;;;;;13.43;12.13;;;21.10;99.90;;;;;;4964246;28;20723;-62
2022/03/27 12:42:39;;;;;;;12.95;11.65;;;21.50;99.90;;;;;;4963121;28;20202;-63
2022/03/27 12:45:18;;;;;;;15.10;13.63;;;22.70;99.90;;;;;;4976851;28;20229;-63
2022/03/27 12:47:58;;;;;;;15.45;13.32;;;21.50;99.90;;;;;;4963063;28;20325;-65
2022/03/27 12:50:30;;;;;;;14.18;12.77;;;20.90;99.90;;;;;;4977182;28;20189;-63
2022/03/27 12:52:57;;;;;;;15.45;13.93;;;20.50;99.90;;;;;;4979554;28;20190;-63
2022/03/27 12:55:43;;;;;;;18.02;13.95;;;20.50;99.90;;;;;;4971346;28;20630;-63
2022/03/27 12:58:17;;;;;;;15.25;13.75;;;20.20;99.90;;;;;;4975321;28;20244;-62
2022/03/27 13:01:05;;;;;;;17.05;14.15;;;20.20;99.90;;;;;;4948638;28;20205;-63
2022/03/27 13:03:34;;;;;;;15.02;13.32;;;19.90;99.90;;;;;;4961143;28;20198;-63
2022/03/27 13:06:03;;;;;;;15.40;13.80;;;20.10;99.90;;;;;;4977905;28;20217;-63